sensor_id;sensor_type;location;lat;lon;timestamp;pressure;altitude;pressure_sealevel;temperature;humidity
6952;BME280;3515;50.138;8.502;2022-10-16T00:01:57;101430;;;14.2;93.9
6952;BME280;3515;50.138;8.502;2022-10-16T00:04:22;101440;;;14.2;93.9
6952;BME280;3515;50.138;8.502;2022-10-16T00:06:47;101440;;;14.2;93.9
6952;BME280;3515;50.138;8.502;2022-10-16T00:09:13;101430;;;14.2;93.9
6952;BME280;3515;50.138;8.502;2022-10-16T00:11:38;101410;;;14.2;93.9
6952;BME280;3515;50.138;8.502;2022-10-16T00:14:04;101430;;;14.2;93.9
6952;BME280;3515;50.138;8.502;2022-10-16T00:16:28;101410;;;14.2;93.9
6952;BME280;3515;50.138;8.502;2022-10-16T00:18:53;101420;;;14.2;93.9
6952;BME280;3515;50.138;8.502;2022-10-16T00:21:19;101420;;;14.2;93.9
6952;BME280;3515;50.138;8.502;2022-10-16T00:23:44;101430;;;14.2;93.9
6952;BME280;3515;50.138;8.502;2022-10-16T00:26:10;101420;;;14.2;93.9
6952;BME280;3515;50.138;8.502;2022-10-16T00:28:35;101430;;;14.2;93.9
6952;BME280;3515;50.138;8.502;2022-10-16T00:31:03;101420;;;14.2;93.9
6952;BME280;3515;50.138;8.502;2022-10-16T00:33:25;101400;;;14.2;93.9
6952;BME280;3515;50.138;8.502;2022-10-16T00:35:50;101420;;;14.2;93.9
6952;BME280;3515;50.138;8.502;2022-10-16T00:38:16;101430;;;14.2;93.9
6952;BME280;3515;50.138;8.502;2022-10-16T00:40:41;101410;;;14.2;93.9
6952;BME280;3515;50.138;8.502;2022-10-16T00:43:12;101430;;;14.2;93.9
6952;BME280;3515;50.138;8.502;2022-10-16T00:45:31;101440;;;14.2;93.9
6952;BME280;3515;50.138;8.502;2022-10-16T00:47:57;101440;;;14.2;93.9
6952;BME280;3515;50.138;8.502;2022-10-16T00:50:24;101430;;;14.2;93.9
6952;BME280;3515;50.138;8.502;2022-10-16T00:52:48;101410;;;14.3;93.9
6952;BME280;3515;50.138;8.502;2022-10-16T00:55:13;101440;;;14.3;93.9
6952;BME280;3515;50.138;8.502;2022-10-16T00:57:38;101420;;;14.3;93.9
6952;BME280;3515;50.138;8.502;2022-10-16T01:00:04;101440;;;14.3;93.9
6952;BME280;3515;50.138;8.502;2022-10-16T01:02:28;101440;;;14.3;93.9
6952;BME280;3515;50.138;8.502;2022-10-16T01:04:53;101450;;;14.3;93.9
6952;BME280;3515;50.138;8.502;2022-10-16T01:07:23;101430;;;14.3;93.9
6952;BME280;3515;50.138;8.502;2022-10-16T01:09:49;101450;;;14.3;93.9
6952;BME280;3515;50.138;8.502;2022-10-16T01:12:10;101440;;;14.3;94.0
6952;BME280;3515;50.138;8.502;2022-10-16T01:14:37;101440;;;14.3;94.0
6952;BME280;3515;50.138;8.502;2022-10-16T01:17:01;101470;;;14.4;94.0
6952;BME280;3515;50.138;8.502;2022-10-16T01:19:31;101440;;;14.4;94.0
6952;BME280;3515;50.138;8.502;2022-10-16T01:21:50;101450;;;14.4;94.0
6952;BME280;3515;50.138;8.502;2022-10-16T01:24:17;101420;;;14.4;94.0
6952;BME280;3515;50.138;8.502;2022-10-16T01:26:49;101460;;;14.4;94.0
6952;BME280;3515;50.138;8.502;2022-10-16T01:29:07;101450;;;14.4;94.0
6952;BME280;3515;50.138;8.502;2022-10-16T01:31:32;101450;;;14.4;94.0
6952;BME280;3515;50.138;8.502;2022-10-16T01:33:58;101430;;;14.4;94.0
6952;BME280;3515;50.138;8.502;2022-10-16T01:36:23;101430;;;14.6;94.0
6952;BME280;3515;50.138;8.502;2022-10-16T01:38:47;101420;;;14.6;94.0
6952;BME280;3515;50.138;8.502;2022-10-16T01:41:13;101460;;;14.6;94.0
6952;BME280;3515;50.138;8.502;2022-10-16T01:43:38;101450;;;14.6;94.0
6952;BME280;3515;50.138;8.502;2022-10-16T01:46:03;101450;;;14.6;94.0
6952;BME280;3515;50.138;8.502;2022-10-16T01:48:28;101450;;;14.6;93.9
6952;BME280;3515;50.138;8.502;2022-10-16T01:50:55;101470;;;14.6;93.9
6952;BME280;3515;50.138;8.502;2022-10-16T01:53:18;101470;;;14.7;94.0
6952;BME280;3515;50.138;8.502;2022-10-16T01:55:44;101450;;;14.7;94.0
6952;BME280;3515;50.138;8.502;2022-10-16T01:58:09;101450;;;14.7;94.0
6952;BME280;3515;50.138;8.502;2022-10-16T02:00:34;101450;;;14.7;94.0
6952;BME280;3515;50.138;8.502;2022-10-16T02:02:59;101450;;;14.7;94.0
6952;BME280;3515;50.138;8.502;2022-10-16T02:05:28;101440;;;14.8;94.0
6952;BME280;3515;50.138;8.502;2022-10-16T02:07:53;101470;;;14.9;94.5
6952;BME280;3515;50.138;8.502;2022-10-16T02:10:19;101460;;;14.9;94.5
6952;BME280;3515;50.138;8.502;2022-10-16T02:12:45;101470;;;14.9;94.5
6952;BME280;3515;50.138;8.502;2022-10-16T02:15:09;101470;;;14.9;94.5
6952;BME280;3515;50.138;8.502;2022-10-16T02:17:34;101470;;;14.9;94.5
6952;BME280;3515;50.138;8.502;2022-10-16T02:19:59;101480;;;14.9;94.5
6952;BME280;3515;50.138;8.502;2022-10-16T02:22:26;101500;;;14.9;94.5
6952;BME280;3515;50.138;8.502;2022-10-16T02:24:57;101470;;;14.9;94.5
6952;BME280;3515;50.138;8.502;2022-10-16T02:27:22;101470;;;14.9;94.5
6952;BME280;3515;50.138;8.502;2022-10-16T02:29:46;101470;;;14.9;94.4
6952;BME280;3515;50.138;8.502;2022-10-16T02:32:11;101470;;;14.9;94.4
6952;BME280;3515;50.138;8.502;2022-10-16T02:34:36;101480;;;14.9;94.5
6952;BME280;3515;50.138;8.502;2022-10-16T02:37:01;101490;;;14.9;94.5
6952;BME280;3515;50.138;8.502;2022-10-16T02:39:27;101480;;;14.9;94.4
6952;BME280;3515;50.138;8.502;2022-10-16T02:41:52;101480;;;14.9;94.4
6952;BME280;3515;50.138;8.502;2022-10-16T02:44:17;101470;;;14.9;94.4
6952;BME280;3515;50.138;8.502;2022-10-16T02:46:42;101500;;;14.9;94.4
6952;BME280;3515;50.138;8.502;2022-10-16T02:49:08;101470;;;14.9;94.4
6952;BME280;3515;50.138;8.502;2022-10-16T02:51:33;101460;;;14.9;94.4
6952;BME280;3515;50.138;8.502;2022-10-16T02:53:58;101480;;;14.9;94.4
6952;BME280;3515;50.138;8.502;2022-10-16T02:56:23;101470;;;14.9;94.4
6952;BME280;3515;50.138;8.502;2022-10-16T02:58:49;101480;;;14.9;94.4
6952;BME280;3515;50.138;8.502;2022-10-16T03:01:14;101500;;;14.9;94.4
6952;BME280;3515;50.138;8.502;2022-10-16T03:03:39;101510;;;14.9;94.4
6952;BME280;3515;50.138;8.502;2022-10-16T03:06:07;101520;;;14.9;94.4
6952;BME280;3515;50.138;8.502;2022-10-16T03:08:33;101480;;;14.9;94.4
6952;BME280;3515;50.138;8.502;2022-10-16T03:10:58;101470;;;14.9;94.4
6952;BME280;3515;50.138;8.502;2022-10-16T03:13:23;101460;;;14.9;94.4
6952;BME280;3515;50.138;8.502;2022-10-16T03:15:48;101470;;;14.9;94.4
6952;BME280;3515;50.138;8.502;2022-10-16T03:18:14;101480;;;14.9;94.4
6952;BME280;3515;50.138;8.502;2022-10-16T03:20:39;101500;;;14.9;94.4
6952;BME280;3515;50.138;8.502;2022-10-16T03:23:04;101490;;;14.9;94.4
6952;BME280;3515;50.138;8.502;2022-10-16T03:25:30;101510;;;14.9;94.4
6952;BME280;3515;50.138;8.502;2022-10-16T03:27:55;101500;;;14.9;94.4
6952;BME280;3515;50.138;8.502;2022-10-16T03:30:20;101480;;;14.9;94.4
6952;BME280;3515;50.138;8.502;2022-10-16T03:32:46;101490;;;14.9;94.4
6952;BME280;3515;50.138;8.502;2022-10-16T03:35:11;101520;;;14.9;94.4
6952;BME280;3515;50.138;8.502;2022-10-16T03:37:36;101510;;;14.9;94.4
6952;BME280;3515;50.138;8.502;2022-10-16T03:40:02;101490;;;14.9;94.4
6952;BME280;3515;50.138;8.502;2022-10-16T03:42:26;101520;;;14.8;94.4
6952;BME280;3515;50.138;8.502;2022-10-16T03:44:52;101510;;;14.8;94.4
6952;BME280;3515;50.138;8.502;2022-10-16T03:47:17;101500;;;14.8;94.4
6952;BME280;3515;50.138;8.502;2022-10-16T03:49:42;101510;;;14.8;94.4
6952;BME280;3515;50.138;8.502;2022-10-16T03:52:08;101530;;;14.8;94.4
6952;BME280;3515;50.138;8.502;2022-10-16T03:54:33;101510;;;14.8;94.4
6952;BME280;3515;50.138;8.502;2022-10-16T03:56:58;101520;;;14.8;94.4
6952;BME280;3515;50.138;8.502;2022-10-16T03:59:23;101510;;;14.8;94.4
6952;BME280;3515;50.138;8.502;2022-10-16T04:01:49;101490;;;14.8;94.4
6952;BME280;3515;50.138;8.502;2022-10-16T04:04:14;101490;;;14.8;94.4
6952;BME280;3515;50.138;8.502;2022-10-16T04:06:39;101500;;;14.8;94.4
6952;BME280;3515;50.138;8.502;2022-10-16T04:09:04;101500;;;14.8;94.4
6952;BME280;3515;50.138;8.502;2022-10-16T04:11:30;101510;;;14.8;94.4
6952;BME280;3515;50.138;8.502;2022-10-16T04:13:55;101510;;;14.8;94.4
6952;BME280;3515;50.138;8.502;2022-10-16T04:16:20;101520;;;14.8;94.4
6952;BME280;3515;50.138;8.502;2022-10-16T04:18:45;101510;;;14.8;94.4
6952;BME280;3515;50.138;8.502;2022-10-16T04:21:10;101510;;;14.8;94.4
6952;BME280;3515;50.138;8.502;2022-10-16T04:23:36;101520;;;14.8;94.4
6952;BME280;3515;50.138;8.502;2022-10-16T04:26:01;101520;;;14.8;94.4
6952;BME280;3515;50.138;8.502;2022-10-16T04:28:26;101520;;;14.8;94.4
6952;BME280;3515;50.138;8.502;2022-10-16T04:30:51;101560;;;14.8;94.4
6952;BME280;3515;50.138;8.502;2022-10-16T04:33:17;101540;;;14.8;94.4
6952;BME280;3515;50.138;8.502;2022-10-16T04:35:42;101530;;;14.8;94.4
6952;BME280;3515;50.138;8.502;2022-10-16T04:38:07;101540;;;14.8;94.4
6952;BME280;3515;50.138;8.502;2022-10-16T04:40:32;101540;;;14.8;94.4
6952;BME280;3515;50.138;8.502;2022-10-16T04:42:58;101510;;;14.8;94.4
6952;BME280;3515;50.138;8.502;2022-10-16T04:45:23;101540;;;14.8;94.4
6952;BME280;3515;50.138;8.502;2022-10-16T04:47:48;101550;;;14.8;94.4
6952;BME280;3515;50.138;8.502;2022-10-16T04:50:14;101530;;;14.8;94.4
6952;BME280;3515;50.138;8.502;2022-10-16T04:52:39;101540;;;14.8;94.4
6952;BME280;3515;50.138;8.502;2022-10-16T04:55:05;101520;;;14.8;94.4
6952;BME280;3515;50.138;8.502;2022-10-16T04:57:29;101550;;;14.8;94.4
6952;BME280;3515;50.138;8.502;2022-10-16T04:59:55;101530;;;14.8;94.4
6952;BME280;3515;50.138;8.502;2022-10-16T05:02:25;101530;;;14.8;94.4
6952;BME280;3515;50.138;8.502;2022-10-16T05:04:51;101540;;;14.8;94.4
6952;BME280;3515;50.138;8.502;2022-10-16T05:07:15;101530;;;14.8;94.4
6952;BME280;3515;50.138;8.502;2022-10-16T05:09:41;101540;;;14.8;94.4
6952;BME280;3515;50.138;8.502;2022-10-16T05:12:06;101540;;;14.8;94.4
6952;BME280;3515;50.138;8.502;2022-10-16T05:14:31;101550;;;14.8;94.4
6952;BME280;3515;50.138;8.502;2022-10-16T05:16:56;101550;;;14.8;94.4
6952;BME280;3515;50.138;8.502;2022-10-16T05:19:22;101540;;;14.8;94.4
6952;BME280;3515;50.138;8.502;2022-10-16T05:21:47;101530;;;14.8;94.4
6952;BME280;3515;50.138;8.502;2022-10-16T05:24:12;101560;;;14.8;94.4
6952;BME280;3515;50.138;8.502;2022-10-16T05:26:38;101560;;;14.8;94.4
6952;BME280;3515;50.138;8.502;2022-10-16T05:29:03;101560;;;14.8;94.4
6952;BME280;3515;50.138;8.502;2022-10-16T05:31:28;101540;;;14.7;94.4
6952;BME280;3515;50.138;8.502;2022-10-16T05:33:58;101540;;;14.8;94.4
6952;BME280;3515;50.138;8.502;2022-10-16T05:36:19;101520;;;14.8;94.4
6952;BME280;3515;50.138;8.502;2022-10-16T05:38:44;101550;;;14.7;93.9
6952;BME280;3515;50.138;8.502;2022-10-16T05:41:09;101540;;;14.7;93.9
6952;BME280;3515;50.138;8.502;2022-10-16T05:43:34;101550;;;14.7;93.9
6952;BME280;3515;50.138;8.502;2022-10-16T05:46:02;101550;;;14.7;93.9
6952;BME280;3515;50.138;8.502;2022-10-16T05:48:25;101520;;;14.7;93.9
6952;BME280;3515;50.138;8.502;2022-10-16T05:50:56;101540;;;14.7;93.9
6952;BME280;3515;50.138;8.502;2022-10-16T05:53:16;101550;;;14.6;93.9
6952;BME280;3515;50.138;8.502;2022-10-16T05:55:41;101570;;;14.6;93.9
6952;BME280;3515;50.138;8.502;2022-10-16T05:58:06;101560;;;14.6;93.9
6952;BME280;3515;50.138;8.502;2022-10-16T06:00:31;101570;;;14.7;93.9
6952;BME280;3515;50.138;8.502;2022-10-16T06:02:57;101580;;;14.7;93.9
6952;BME280;3515;50.138;8.502;2022-10-16T06:05:22;101570;;;14.7;93.9
6952;BME280;3515;50.138;8.502;2022-10-16T06:07:47;101590;;;14.7;93.9
6952;BME280;3515;50.138;8.502;2022-10-16T06:10:13;101580;;;14.7;93.9
6952;BME280;3515;50.138;8.502;2022-10-16T06:12:38;101580;;;14.7;93.9
6952;BME280;3515;50.138;8.502;2022-10-16T06:15:04;101600;;;14.7;93.9
6952;BME280;3515;50.138;8.502;2022-10-16T06:17:28;101590;;;14.7;93.9
6952;BME280;3515;50.138;8.502;2022-10-16T06:19:54;101570;;;14.7;93.9
6952;BME280;3515;50.138;8.502;2022-10-16T06:22:19;101590;;;14.7;93.9
6952;BME280;3515;50.138;8.502;2022-10-16T06:24:44;101610;;;14.7;93.9
6952;BME280;3515;50.138;8.502;2022-10-16T06:27:09;101600;;;14.7;93.9
6952;BME280;3515;50.138;8.502;2022-10-16T06:29:35;101600;;;14.7;93.9
6952;BME280;3515;50.138;8.502;2022-10-16T06:32:00;101600;;;14.7;93.9
6952;BME280;3515;50.138;8.502;2022-10-16T06:34:25;101600;;;14.7;93.9
6952;BME280;3515;50.138;8.502;2022-10-16T06:36:51;101610;;;14.7;94.4
6952;BME280;3515;50.138;8.502;2022-10-16T06:39:16;101590;;;14.7;93.9
6952;BME280;3515;50.138;8.502;2022-10-16T06:41:41;101600;;;14.7;94.4
6952;BME280;3515;50.138;8.502;2022-10-16T06:44:06;101600;;;14.7;94.4
6952;BME280;3515;50.138;8.502;2022-10-16T06:46:32;101580;;;14.7;93.9
6952;BME280;3515;50.138;8.502;2022-10-16T06:48:57;101610;;;14.7;94.4
6952;BME280;3515;50.138;8.502;2022-10-16T06:51:23;101610;;;14.7;94.4
6952;BME280;3515;50.138;8.502;2022-10-16T06:53:48;101590;;;14.8;94.4
6952;BME280;3515;50.138;8.502;2022-10-16T06:56:16;101590;;;14.8;94.4
6952;BME280;3515;50.138;8.502;2022-10-16T06:58:41;101620;;;14.8;94.4
6952;BME280;3515;50.138;8.502;2022-10-16T07:01:06;101610;;;14.8;94.4
6952;BME280;3515;50.138;8.502;2022-10-16T07:03:31;101620;;;14.8;94.4
6952;BME280;3515;50.138;8.502;2022-10-16T07:05:57;101610;;;14.8;94.4
6952;BME280;3515;50.138;8.502;2022-10-16T07:08:22;101620;;;14.8;94.4
6952;BME280;3515;50.138;8.502;2022-10-16T07:10:47;101640;;;14.8;94.4
6952;BME280;3515;50.138;8.502;2022-10-16T07:13:12;101600;;;14.8;94.4
6952;BME280;3515;50.138;8.502;2022-10-16T07:15:38;101640;;;14.8;94.4
6952;BME280;3515;50.138;8.502;2022-10-16T07:18:06;101640;;;14.8;94.4
6952;BME280;3515;50.138;8.502;2022-10-16T07:20:31;101630;;;14.8;94.4
6952;BME280;3515;50.138;8.502;2022-10-16T07:22:56;101660;;;14.8;94.4
6952;BME280;3515;50.138;8.502;2022-10-16T07:25:22;101660;;;14.8;94.4
6952;BME280;3515;50.138;8.502;2022-10-16T07:27:47;101660;;;14.8;94.4
6952;BME280;3515;50.138;8.502;2022-10-16T07:30:12;101650;;;14.9;94.4
6952;BME280;3515;50.138;8.502;2022-10-16T07:32:40;101660;;;14.8;94.4
6952;BME280;3515;50.138;8.502;2022-10-16T07:35:06;101680;;;14.9;94.4
6952;BME280;3515;50.138;8.502;2022-10-16T07:37:31;101670;;;14.9;94.4
6952;BME280;3515;50.138;8.502;2022-10-16T07:40:02;101690;;;14.9;94.4
6952;BME280;3515;50.138;8.502;2022-10-16T07:42:27;101680;;;14.9;94.4
6952;BME280;3515;50.138;8.502;2022-10-16T07:44:52;101670;;;14.9;94.4
6952;BME280;3515;50.138;8.502;2022-10-16T07:47:18;101680;;;14.9;94.4
6952;BME280;3515;50.138;8.502;2022-10-16T07:49:43;101700;;;14.9;94.4
6952;BME280;3515;50.138;8.502;2022-10-16T07:52:08;101700;;;14.9;94.4
6952;BME280;3515;50.138;8.502;2022-10-16T07:54:34;101710;;;14.9;94.4
6952;BME280;3515;50.138;8.502;2022-10-16T07:56:59;101710;;;15.0;94.4
6952;BME280;3515;50.138;8.502;2022-10-16T07:59:24;101690;;;15.1;94.5
6952;BME280;3515;50.138;8.502;2022-10-16T08:01:49;101700;;;15.1;94.5
6952;BME280;3515;50.138;8.502;2022-10-16T08:04:15;101730;;;15.1;94.5
6952;BME280;3515;50.138;8.502;2022-10-16T08:06:40;101710;;;15.1;94.5
6952;BME280;3515;50.138;8.502;2022-10-16T08:09:06;101720;;;15.1;94.4
6952;BME280;3515;50.138;8.502;2022-10-16T08:11:31;101700;;;15.1;94.4
6952;BME280;3515;50.138;8.502;2022-10-16T08:13:56;101720;;;15.1;94.4
6952;BME280;3515;50.138;8.502;2022-10-16T08:16:21;101720;;;15.1;94.4
6952;BME280;3515;50.138;8.502;2022-10-16T08:18:46;101740;;;15.2;94.4
6952;BME280;3515;50.138;8.502;2022-10-16T08:21:13;101740;;;15.2;94.4
6952;BME280;3515;50.138;8.502;2022-10-16T08:23:37;101760;;;15.2;94.4
6952;BME280;3515;50.138;8.502;2022-10-16T08:26:03;101740;;;15.2;94.4
6952;BME280;3515;50.138;8.502;2022-10-16T08:28:27;101740;;;15.2;94.4
6952;BME280;3515;50.138;8.502;2022-10-16T08:30:53;101760;;;15.2;94.4
6952;BME280;3515;50.138;8.502;2022-10-16T08:33:18;101750;;;15.2;94.4
6952;BME280;3515;50.138;8.502;2022-10-16T08:35:50;101770;;;15.2;94.5
6952;BME280;3515;50.138;8.502;2022-10-16T08:38:08;101760;;;15.3;94.4
6952;BME280;3515;50.138;8.502;2022-10-16T08:40:35;101770;;;15.3;94.4
6952;BME280;3515;50.138;8.502;2022-10-16T08:43:11;101760;;;15.3;94.4
6952;BME280;3515;50.138;8.502;2022-10-16T08:45:30;101780;;;15.3;94.4
6952;BME280;3515;50.138;8.502;2022-10-16T08:47:52;101780;;;15.3;94.4
6952;BME280;3515;50.138;8.502;2022-10-16T08:50:23;101780;;;15.3;94.4
6952;BME280;3515;50.138;8.502;2022-10-16T08:52:41;101790;;;15.4;94.4
6952;BME280;3515;50.138;8.502;2022-10-16T08:55:06;101770;;;15.4;94.4
6952;BME280;3515;50.138;8.502;2022-10-16T08:57:31;101770;;;15.4;94.4
6952;BME280;3515;50.138;8.502;2022-10-16T08:59:57;101790;;;15.5;94.5
6952;BME280;3515;50.138;8.502;2022-10-16T09:02:28;101800;;;15.5;94.5
6952;BME280;3515;50.138;8.502;2022-10-16T09:04:56;101790;;;15.6;94.5
6952;BME280;3515;50.138;8.502;2022-10-16T09:07:17;101800;;;15.6;94.5
6952;BME280;3515;50.138;8.502;2022-10-16T09:09:52;101800;;;15.6;94.4
6952;BME280;3515;50.138;8.502;2022-10-16T09:12:12;101790;;;15.6;94.4
6952;BME280;3515;50.138;8.502;2022-10-16T09:14:40;101800;;;15.6;94.4
6952;BME280;3515;50.138;8.502;2022-10-16T09:17:01;101810;;;15.6;94.4
6952;BME280;3515;50.138;8.502;2022-10-16T09:19:27;101810;;;15.6;94.4
6952;BME280;3515;50.138;8.502;2022-10-16T09:21:51;101820;;;15.5;94.4
6952;BME280;3515;50.138;8.502;2022-10-16T09:24:17;101840;;;15.4;94.4
6952;BME280;3515;50.138;8.502;2022-10-16T09:26:42;101820;;;15.5;94.4
6952;BME280;3515;50.138;8.502;2022-10-16T09:29:08;101820;;;15.5;94.4
6952;BME280;3515;50.138;8.502;2022-10-16T09:31:32;101820;;;15.5;94.4
6952;BME280;3515;50.138;8.502;2022-10-16T09:33:57;101840;;;15.5;94.4
6952;BME280;3515;50.138;8.502;2022-10-16T09:36:22;101860;;;15.6;94.4
6952;BME280;3515;50.138;8.502;2022-10-16T09:38:47;101830;;;15.6;94.4
6952;BME280;3515;50.138;8.502;2022-10-16T09:41:14;101840;;;15.6;94.4
6952;BME280;3515;50.138;8.502;2022-10-16T09:43:39;101850;;;15.6;94.4
6952;BME280;3515;50.138;8.502;2022-10-16T09:46:04;101840;;;15.7;94.5
6952;BME280;3515;50.138;8.502;2022-10-16T09:48:31;101830;;;15.7;94.5
6952;BME280;3515;50.138;8.502;2022-10-16T09:50:55;101840;;;15.7;94.5
6952;BME280;3515;50.138;8.502;2022-10-16T09:53:19;101840;;;15.8;94.5
6952;BME280;3515;50.138;8.502;2022-10-16T09:55:48;101850;;;15.8;94.5
6952;BME280;3515;50.138;8.502;2022-10-16T09:58:11;101840;;;15.8;94.5
6952;BME280;3515;50.138;8.502;2022-10-16T10:00:35;101850;;;15.8;94.5
6952;BME280;3515;50.138;8.502;2022-10-16T10:03:00;101850;;;15.9;94.5
6952;BME280;3515;50.138;8.502;2022-10-16T10:05:26;101840;;;15.9;94.5
6952;BME280;3515;50.138;8.502;2022-10-16T10:07:54;101860;;;16.0;94.5
6952;BME280;3515;50.138;8.502;2022-10-16T10:10:20;101840;;;16.3;94.5
6952;BME280;3515;50.138;8.502;2022-10-16T10:12:41;101870;;;16.4;94.5
6952;BME280;3515;50.138;8.502;2022-10-16T10:15:07;101850;;;16.5;94.0
6952;BME280;3515;50.138;8.502;2022-10-16T10:17:31;101860;;;16.6;93.5
6952;BME280;3515;50.138;8.502;2022-10-16T10:19:58;101830;;;16.6;93.5
6952;BME280;3515;50.138;8.502;2022-10-16T10:22:23;101850;;;16.8;93.0
6952;BME280;3515;50.138;8.502;2022-10-16T10:24:55;101820;;;16.9;92.0
6952;BME280;3515;50.138;8.502;2022-10-16T10:27:13;101830;;;16.9;92.5
6952;BME280;3515;50.138;8.502;2022-10-16T10:29:44;101840;;;17.1;92.0
6952;BME280;3515;50.138;8.502;2022-10-16T10:32:08;101830;;;17.1;92.0
6952;BME280;3515;50.138;8.502;2022-10-16T10:34:38;101860;;;17.2;92.0
6952;BME280;3515;50.138;8.502;2022-10-16T10:36:54;101840;;;17.2;92.0
6952;BME280;3515;50.138;8.502;2022-10-16T10:39:20;101870;;;17.2;92.0
6952;BME280;3515;50.138;8.502;2022-10-16T10:44:11;101850;;;17.5;91.0
6952;BME280;3515;50.138;8.502;2022-10-16T10:46:35;101850;;;17.6;90.5
6952;BME280;3515;50.138;8.502;2022-10-16T10:49:07;101850;;;17.6;90.0
6952;BME280;3515;50.138;8.502;2022-10-16T10:51:27;101840;;;17.8;90.0
6952;BME280;3515;50.138;8.502;2022-10-16T10:53:52;101840;;;17.9;90.0
6952;BME280;3515;50.138;8.502;2022-10-16T10:56:20;101820;;;17.8;90.0
6952;BME280;3515;50.138;8.502;2022-10-16T10:58:50;101840;;;17.8;90.5
6952;BME280;3515;50.138;8.502;2022-10-16T11:01:11;101870;;;17.9;90.5
6952;BME280;3515;50.138;8.502;2022-10-16T11:03:45;101840;;;17.9;90.5
6952;BME280;3515;50.138;8.502;2022-10-16T11:06:04;101850;;;17.9;90.0
6952;BME280;3515;50.138;8.502;2022-10-16T11:08:27;101870;;;17.9;90.5
6952;BME280;3515;50.138;8.502;2022-10-16T11:10:52;101850;;;17.8;90.0
6952;BME280;3515;50.138;8.502;2022-10-16T11:13:21;101850;;;17.6;90.5
6952;BME280;3515;50.138;8.502;2022-10-16T11:15:42;101830;;;17.5;90.0
6952;BME280;3515;50.138;8.502;2022-10-16T11:18:08;101840;;;17.5;90.5
6952;BME280;3515;50.138;8.502;2022-10-16T11:20:33;101840;;;17.5;90.5
6952;BME280;3515;50.138;8.502;2022-10-16T11:22:59;101830;;;17.5;90.5
6952;BME280;3515;50.138;8.502;2022-10-16T11:25:23;101830;;;17.5;90.5
6952;BME280;3515;50.138;8.502;2022-10-16T11:27:50;101830;;;17.6;90.0
6952;BME280;3515;50.138;8.502;2022-10-16T11:30:15;101830;;;17.6;90.0
6952;BME280;3515;50.138;8.502;2022-10-16T11:32:41;101870;;;17.8;89.0
6952;BME280;3515;50.138;8.502;2022-10-16T11:35:07;101820;;;17.9;89.0
6952;BME280;3515;50.138;8.502;2022-10-16T11:37:30;101850;;;18.1;89.0
6952;BME280;3515;50.138;8.502;2022-10-16T11:40:05;101840;;;18.1;89.0
6952;BME280;3515;50.138;8.502;2022-10-16T11:42:26;101850;;;18.1;89.0
6952;BME280;3515;50.138;8.502;2022-10-16T11:44:52;101840;;;18.1;89.0
6952;BME280;3515;50.138;8.502;2022-10-16T11:47:24;101850;;;18.1;89.0
6952;BME280;3515;50.138;8.502;2022-10-16T11:49:40;101840;;;18.1;89.0
6952;BME280;3515;50.138;8.502;2022-10-16T11:52:07;101850;;;18.3;89.0
6952;BME280;3515;50.138;8.502;2022-10-16T11:54:32;101830;;;18.3;89.0
6952;BME280;3515;50.138;8.502;2022-10-16T11:56:58;101830;;;18.3;89.0
6952;BME280;3515;50.138;8.502;2022-10-16T11:59:23;101840;;;18.2;89.0
6952;BME280;3515;50.138;8.502;2022-10-16T12:01:47;101850;;;18.4;89.0
6952;BME280;3515;50.138;8.502;2022-10-16T12:04:16;101850;;;18.5;88.5
6952;BME280;3515;50.138;8.502;2022-10-16T12:06:37;101850;;;18.7;88.0
6952;BME280;3515;50.138;8.502;2022-10-16T12:09:02;101840;;;19.0;86.5
6952;BME280;3515;50.138;8.502;2022-10-16T12:11:34;101830;;;19.1;86.5
6952;BME280;3515;50.138;8.502;2022-10-16T12:14:04;101860;;;19.2;86.5
6952;BME280;3515;50.138;8.502;2022-10-16T12:16:21;101820;;;19.1;86.5
6952;BME280;3515;50.138;8.502;2022-10-16T12:18:44;101850;;;18.9;87.5
6952;BME280;3515;50.138;8.502;2022-10-16T12:21:09;101850;;;18.9;87.5
6952;BME280;3515;50.138;8.502;2022-10-16T12:23:36;101850;;;18.8;88.0
6952;BME280;3515;50.138;8.502;2022-10-16T12:25:59;101840;;;18.8;88.0
6952;BME280;3515;50.138;8.502;2022-10-16T12:28:26;101850;;;18.8;88.0
6952;BME280;3515;50.138;8.502;2022-10-16T12:30:52;101850;;;18.6;87.5
6952;BME280;3515;50.138;8.502;2022-10-16T12:33:19;101840;;;18.6;87.5
6952;BME280;3515;50.138;8.502;2022-10-16T12:35:43;101850;;;18.6;87.5
6952;BME280;3515;50.138;8.502;2022-10-16T12:38:08;101850;;;18.7;87.5
6952;BME280;3515;50.138;8.502;2022-10-16T12:40:32;101880;;;18.8;87.0
6952;BME280;3515;50.138;8.502;2022-10-16T12:42:56;101870;;;18.8;87.0
6952;BME280;3515;50.138;8.502;2022-10-16T12:45:26;101860;;;18.8;87.0
6952;BME280;3515;50.138;8.502;2022-10-16T12:47:48;101860;;;18.9;87.0
6952;BME280;3515;50.138;8.502;2022-10-16T12:52:40;101880;;;18.9;86.0
6952;BME280;3515;50.138;8.502;2022-10-16T12:55:11;101840;;;18.9;86.5
6952;BME280;3515;50.138;8.502;2022-10-16T12:57:36;101850;;;19.1;85.5
6952;BME280;3515;50.138;8.502;2022-10-16T12:59:58;101870;;;19.2;85.0
6952;BME280;3515;50.138;8.502;2022-10-16T13:02:34;101850;;;19.1;85.0
6952;BME280;3515;50.138;8.502;2022-10-16T13:04:52;101880;;;19.2;85.0
6952;BME280;3515;50.138;8.502;2022-10-16T13:07:18;101880;;;19.1;84.5
6952;BME280;3515;50.138;8.502;2022-10-16T13:09:42;101840;;;19.1;84.5
6952;BME280;3515;50.138;8.502;2022-10-16T13:12:09;101870;;;19.1;84.5
6952;BME280;3515;50.138;8.502;2022-10-16T13:14:35;101840;;;19.2;84.5
6952;BME280;3515;50.138;8.502;2022-10-16T13:16:55;101870;;;19.2;84.0
6952;BME280;3515;50.138;8.502;2022-10-16T13:19:21;101860;;;19.1;84.0
6952;BME280;3515;50.138;8.502;2022-10-16T13:21:45;101870;;;19.1;84.0
6952;BME280;3515;50.138;8.502;2022-10-16T13:24:14;101870;;;19.1;84.0
6952;BME280;3515;50.138;8.502;2022-10-16T13:26:37;101860;;;19.1;83.5
6952;BME280;3515;50.138;8.502;2022-10-16T13:28:59;101860;;;19.2;83.0
6952;BME280;3515;50.138;8.502;2022-10-16T13:31:24;101860;;;19.4;82.5
6952;BME280;3515;50.138;8.502;2022-10-16T13:33:50;101870;;;19.5;83.0
6952;BME280;3515;50.138;8.502;2022-10-16T13:36:19;101840;;;19.4;82.5
6952;BME280;3515;50.138;8.502;2022-10-16T13:38:40;101860;;;19.5;82.5
6952;BME280;3515;50.138;8.502;2022-10-16T13:41:06;101870;;;19.5;82.5
6952;BME280;3515;50.138;8.502;2022-10-16T13:43:31;101860;;;19.6;83.0
6952;BME280;3515;50.138;8.502;2022-10-16T13:45:57;101850;;;19.6;83.0
6952;BME280;3515;50.138;8.502;2022-10-16T13:48:21;101850;;;19.5;82.5
6952;BME280;3515;50.138;8.502;2022-10-16T13:50:46;101840;;;19.5;83.0
6952;BME280;3515;50.138;8.502;2022-10-16T13:53:13;101880;;;19.5;83.0
6952;BME280;3515;50.138;8.502;2022-10-16T13:55:36;101850;;;19.4;83.0
6952;BME280;3515;50.138;8.502;2022-10-16T13:58:07;101850;;;19.4;83.0
6952;BME280;3515;50.138;8.502;2022-10-16T14:00:27;101860;;;19.4;83.0
6952;BME280;3515;50.138;8.502;2022-10-16T14:02:54;101840;;;19.4;83.5